createdAt,value
2023-03-26T00:01:00.907Z,10.20
2023-03-26T00:03:28.033Z,10.30
2023-03-26T00:06:06.379Z,10.30
2023-03-26T00:08:37.109Z,10.30
2023-03-26T00:11:04.715Z,10.30
2023-03-26T00:13:32.445Z,10.30
2023-03-26T00:15:59.783Z,10.40
2023-03-26T00:18:30.908Z,10.40
2023-03-26T00:20:58.759Z,10.50
2023-03-26T00:23:27.349Z,10.60
2023-03-26T00:25:55.020Z,10.60
2023-03-26T00:28:23.237Z,10.60
2023-03-26T00:30:50.727Z,10.70
2023-03-26T00:33:17.726Z,10.70
2023-03-26T00:35:47.438Z,10.70
2023-03-26T00:38:15.066Z,10.80
2023-03-26T00:40:48.235Z,10.80
2023-03-26T00:43:21.197Z,10.80
2023-03-26T00:45:49.054Z,10.80
2023-03-26T00:48:16.905Z,10.80
2023-03-26T00:50:45.720Z,10.80
2023-03-26T00:53:13.943Z,10.80
2023-03-26T00:55:45.276Z,10.80
2023-03-26T00:58:12.924Z,10.90
2023-03-26T01:00:45.696Z,10.90
2023-03-26T01:03:24.857Z,10.90
2023-03-26T01:06:08.252Z,11.00
2023-03-26T01:08:45.437Z,11.00
2023-03-26T01:11:14.299Z,11.00
2023-03-26T01:13:44.129Z,11.00
2023-03-26T01:16:20.681Z,11.10
2023-03-26T01:18:48.799Z,11.10
2023-03-26T01:21:22.892Z,11.20
2023-03-26T01:24:00.668Z,11.20
2023-03-26T01:26:54.276Z,11.30
2023-03-26T01:29:32.983Z,11.30
2023-03-26T01:32:06.575Z,11.30
2023-03-26T01:34:42.494Z,11.30
2023-03-26T01:37:09.345Z,11.20
2023-03-26T01:39:40.687Z,11.20
2023-03-26T01:42:16.959Z,11.20
2023-03-26T01:45:04.048Z,11.20
2023-03-26T01:47:31.290Z,11.20
2023-03-26T01:49:58.223Z,11.10
2023-03-26T01:52:26.427Z,11.10
2023-03-26T01:54:57.803Z,11.10
2023-03-26T01:57:27.718Z,11.10
2023-03-26T02:00:13.143Z,11.10
2023-03-26T02:02:40.148Z,11.10
2023-03-26T02:05:14.078Z,11.00
2023-03-26T02:07:51.218Z,11.10
2023-03-26T02:10:22.814Z,11.10
2023-03-26T02:12:50.431Z,11.10
2023-03-26T02:15:17.630Z,11.20
2023-03-26T02:17:44.470Z,11.20
2023-03-26T02:20:12.476Z,11.30
2023-03-26T02:22:45.920Z,11.40
2023-03-26T02:25:17.367Z,11.50
2023-03-26T02:27:44.734Z,11.50
2023-03-26T02:30:13.898Z,11.60
2023-03-26T02:32:40.812Z,11.70
2023-03-26T02:35:07.871Z,11.70
2023-03-26T02:37:34.704Z,11.80
2023-03-26T02:40:01.827Z,11.80
2023-03-26T02:42:28.678Z,11.80
2023-03-26T02:44:55.629Z,11.80
2023-03-26T02:47:25.984Z,11.80
2023-03-26T02:49:57.359Z,11.90
2023-03-26T02:52:24.338Z,11.90
2023-03-26T02:54:51.223Z,11.90
2023-03-26T02:57:18.048Z,11.90
2023-03-26T02:59:46.520Z,11.90
2023-03-26T03:02:16.291Z,11.90
2023-03-26T03:04:44.202Z,11.90
2023-03-26T03:07:14.533Z,11.90
2023-03-26T03:09:41.706Z,11.90
2023-03-26T03:12:08.634Z,11.90
2023-03-26T03:14:36.021Z,12.00
2023-03-26T03:17:02.926Z,12.00
2023-03-26T03:19:29.819Z,12.00
2023-03-26T03:21:56.728Z,12.10
2023-03-26T03:24:23.612Z,12.10
2023-03-26T03:26:55.159Z,12.10
2023-03-26T03:29:22.002Z,12.10
2023-03-26T03:31:48.875Z,12.10
2023-03-26T03:34:16.031Z,12.10
2023-03-26T03:36:42.960Z,12.10
2023-03-26T03:39:09.838Z,12.10
2023-03-26T03:41:36.748Z,12.10
2023-03-26T03:44:03.681Z,12.20
2023-03-26T03:46:30.794Z,12.20
2023-03-26T03:48:57.814Z,12.20
2023-03-26T03:51:24.668Z,12.20
2023-03-26T03:53:52.907Z,12.20
2023-03-26T03:56:24.242Z,12.20
2023-03-26T03:58:51.714Z,12.20
2023-03-26T04:01:18.896Z,12.20
2023-03-26T04:03:46.956Z,12.20
2023-03-26T04:06:14.255Z,12.20
2023-03-26T04:08:41.197Z,12.20
2023-03-26T04:11:08.111Z,12.20
2023-03-26T04:13:35.181Z,12.20
2023-03-26T04:16:02.158Z,12.20
2023-03-26T04:18:30.389Z,12.20
2023-03-26T04:20:57.368Z,12.20
2023-03-26T04:23:24.599Z,12.20
2023-03-26T04:25:54.172Z,12.10
2023-03-26T04:28:28.366Z,12.20
2023-03-26T04:30:55.855Z,12.10
2023-03-26T04:33:22.826Z,12.10
2023-03-26T04:35:49.779Z,12.10
2023-03-26T04:38:16.965Z,12.00
2023-03-26T04:40:47.421Z,12.00
2023-03-26T04:43:16.548Z,12.00
2023-03-26T04:45:43.927Z,12.00
2023-03-26T04:48:15.225Z,12.00
2023-03-26T04:50:42.971Z,12.10
2023-03-26T04:53:17.335Z,12.10
2023-03-26T04:55:47.148Z,12.00
2023-03-26T04:58:14.177Z,12.00
2023-03-26T05:00:41.546Z,12.00
2023-03-26T05:03:12.112Z,12.00
2023-03-26T05:05:40.093Z,12.00
2023-03-26T05:08:07.127Z,12.00
2023-03-26T05:10:34.392Z,12.00
2023-03-26T05:13:01.721Z,12.10
2023-03-26T05:15:28.560Z,12.10
2023-03-26T05:17:55.879Z,12.10
2023-03-26T05:20:24.702Z,12.10
2023-03-26T05:22:51.720Z,12.10
2023-03-26T05:25:19.100Z,12.10
2023-03-26T05:27:46.213Z,12.10
2023-03-26T05:30:17.458Z,12.10
2023-03-26T05:32:44.465Z,12.10
2023-03-26T05:35:12.811Z,12.10
2023-03-26T05:37:40.337Z,12.10
2023-03-26T05:40:12.440Z,12.10
2023-03-26T05:42:39.985Z,12.10
2023-03-26T05:45:11.328Z,12.10
2023-03-26T05:47:38.271Z,12.10
2023-03-26T05:50:06.576Z,12.10
2023-03-26T05:52:33.817Z,12.10
2023-03-26T05:55:00.827Z,12.10
2023-03-26T05:57:29.715Z,12.10
2023-03-26T05:59:56.817Z,12.10
2023-03-26T06:02:24.004Z,12.10
2023-03-26T06:04:51.273Z,12.10
2023-03-26T06:07:19.971Z,12.10
2023-03-26T06:09:46.902Z,12.10
2023-03-26T06:12:14.138Z,12.10
2023-03-26T06:14:42.988Z,12.20
2023-03-26T06:17:10.515Z,12.20
2023-03-26T06:19:37.606Z,12.20
2023-03-26T06:22:05.068Z,12.20
2023-03-26T06:24:32.592Z,12.20
2023-03-26T06:26:59.516Z,12.20
2023-03-26T06:29:27.208Z,12.20
2023-03-26T06:31:54.267Z,12.20
2023-03-26T06:34:21.272Z,12.20
2023-03-26T06:36:49.014Z,12.30
2023-03-26T06:39:16.368Z,12.30
2023-03-26T06:41:43.408Z,12.30
2023-03-26T06:44:11.475Z,12.30
2023-03-26T06:46:38.428Z,12.40
2023-03-26T06:49:05.664Z,12.40
2023-03-26T06:51:32.650Z,12.40
2023-03-26T06:53:59.631Z,12.40
2023-03-26T06:56:26.554Z,12.50
2023-03-26T06:58:53.522Z,12.50
2023-03-26T07:01:20.597Z,12.50
2023-03-26T07:03:47.529Z,12.60
2023-03-26T07:06:14.593Z,12.60
2023-03-26T07:08:41.638Z,12.60
2023-03-26T07:11:08.753Z,12.60
2023-03-26T07:13:36.739Z,12.60
2023-03-26T07:16:03.763Z,12.60
2023-03-26T07:18:31.035Z,12.70
2023-03-26T07:20:58.131Z,12.70
2023-03-26T07:23:25.312Z,12.70
2023-03-26T07:25:52.434Z,12.70
2023-03-26T07:28:20.774Z,12.70
2023-03-26T07:30:57.361Z,12.70
2023-03-26T07:33:43.263Z,12.80
2023-03-26T07:36:16.266Z,12.80
2023-03-26T07:38:51.311Z,12.90
2023-03-26T07:41:30.457Z,12.90
2023-03-26T07:44:12.959Z,13.00
2023-03-26T07:46:41.660Z,13.00
2023-03-26T07:49:14.855Z,13.00
2023-03-26T07:51:41.875Z,13.00
2023-03-26T07:54:10.214Z,13.00
2023-03-26T07:56:38.792Z,13.00
2023-03-26T07:59:10.763Z,13.10
2023-03-26T08:01:57.837Z,13.20
2023-03-26T08:04:43.871Z,13.20
2023-03-26T08:07:15.233Z,13.30
2023-03-26T08:09:45.169Z,13.30
2023-03-26T08:12:24.722Z,13.30
2023-03-26T08:14:57.692Z,13.30
2023-03-26T08:17:33.749Z,13.40
2023-03-26T08:20:25.211Z,13.40
2023-03-26T08:22:56.697Z,13.50
2023-03-26T08:25:35.182Z,13.50
2023-03-26T08:28:26.984Z,13.60
2023-03-26T08:30:57.442Z,13.60
2023-03-26T08:33:27.276Z,13.70
2023-03-26T08:35:54.216Z,13.70
2023-03-26T08:38:21.699Z,13.80
2023-03-26T08:40:57.692Z,13.80
2023-03-26T08:43:43.301Z,13.80
2023-03-26T08:46:19.402Z,13.80
2023-03-26T08:48:46.396Z,13.90
2023-03-26T08:51:13.714Z,13.90
2023-03-26T08:53:59.316Z,14.00
2023-03-26T08:56:28.983Z,14.10
2023-03-26T08:59:11.171Z,14.10
2023-03-26T09:01:56.623Z,14.10
2023-03-26T09:04:36.063Z,14.20
2023-03-26T09:07:15.610Z,14.30
2023-03-26T09:09:46.160Z,14.40
2023-03-26T09:12:15.916Z,14.60
2023-03-26T09:15:01.399Z,14.70
2023-03-26T09:17:46.904Z,14.90
2023-03-26T09:20:31.293Z,15.00
2023-03-26T09:23:13.902Z,15.10
2023-03-26T09:25:43.338Z,15.10
2023-03-26T09:28:16.464Z,15.20
2023-03-26T09:30:55.440Z,15.40
2023-03-26T09:33:32.284Z,15.50
2023-03-26T09:36:18.720Z,15.60
2023-03-26T09:39:06.158Z,15.80
2023-03-26T09:41:33.017Z,15.80
2023-03-26T09:44:02.744Z,15.80
2023-03-26T09:46:36.417Z,15.90
2023-03-26T09:49:23.104Z,15.90
2023-03-26T09:51:49.986Z,16.00
2023-03-26T09:54:39.528Z,16.00
2023-03-26T09:57:29.489Z,16.00
2023-03-26T10:00:05.010Z,16.10
2023-03-26T10:02:45.363Z,16.20
2023-03-26T10:05:27.009Z,16.30
2023-03-26T10:07:53.975Z,16.40
2023-03-26T10:10:36.143Z,16.50
2023-03-26T10:13:24.038Z,16.60
2023-03-26T10:16:05.488Z,16.60
2023-03-26T10:18:35.784Z,16.60
2023-03-26T10:21:05.884Z,16.50
2023-03-26T10:23:36.334Z,16.30
2023-03-26T10:26:09.527Z,16.20
2023-03-26T10:28:42.683Z,16.00
2023-03-26T10:31:39.162Z,15.90
2023-03-26T10:34:31.192Z,15.80
2023-03-26T10:37:09.184Z,15.60
2023-03-26T10:39:45.563Z,15.50
2023-03-26T10:42:12.569Z,15.40
2023-03-26T10:44:43.535Z,15.40
2023-03-26T10:47:33.619Z,15.30
2023-03-26T10:50:03.681Z,15.20
2023-03-26T10:52:39.471Z,15.20
2023-03-26T10:55:35.523Z,15.20
2023-03-26T10:58:14.491Z,15.20
2023-03-26T11:00:48.607Z,15.20
2023-03-26T11:03:31.137Z,15.20
2023-03-26T11:06:16.900Z,15.20
2023-03-26T11:08:46.686Z,15.20
2023-03-26T11:11:13.540Z,15.20
2023-03-26T11:13:54.539Z,15.30
2023-03-26T11:16:30.577Z,15.30
2023-03-26T11:19:13.156Z,15.30
2023-03-26T11:21:40.028Z,15.30
2023-03-26T11:24:06.911Z,15.40
2023-03-26T11:26:56.042Z,15.40
2023-03-26T11:29:33.435Z,15.40
2023-03-26T11:32:06.387Z,15.40
2023-03-26T11:34:56.655Z,15.50
2023-03-26T11:37:33.221Z,15.50
2023-03-26T11:40:01.197Z,15.50
2023-03-26T11:42:29.964Z,15.50
2023-03-26T11:44:59.225Z,15.50
2023-03-26T11:47:33.068Z,15.50
2023-03-26T11:50:00.733Z,15.60
2023-03-26T11:52:28.418Z,15.60
2023-03-26T11:54:58.597Z,15.70
2023-03-26T11:57:28.099Z,15.70
2023-03-26T11:59:59.166Z,15.70
2023-03-26T12:02:29.693Z,15.70
2023-03-26T12:05:05.818Z,15.60
2023-03-26T12:07:33.971Z,15.60
2023-03-26T12:10:19.035Z,15.60
2023-03-26T12:12:47.898Z,15.50
2023-03-26T12:15:19.473Z,15.50
2023-03-26T12:17:47.480Z,15.40
2023-03-26T12:20:26.708Z,15.40
2023-03-26T12:23:00.798Z,15.30
2023-03-26T12:25:38.805Z,15.20
2023-03-26T12:28:17.546Z,15.20
2023-03-26T12:31:18.487Z,15.20
2023-03-26T12:33:46.985Z,15.10
2023-03-26T12:36:17.026Z,15.10
2023-03-26T12:38:46.345Z,15.10
2023-03-26T12:42:52.812Z,15.10
2023-03-26T12:44:54.606Z,15.10
2023-03-26T12:48:01.620Z,15.10
2023-03-26T12:50:34.077Z,15.10
2023-03-26T12:53:02.757Z,15.10
2023-03-26T12:55:48.548Z,15.00
2023-03-26T12:58:26.029Z,15.00
2023-03-26T13:00:58.912Z,15.00
2023-03-26T13:03:38.204Z,15.00
2023-03-26T13:06:11.148Z,15.00
2023-03-26T13:08:50.507Z,15.00
2023-03-26T13:11:23.830Z,15.00
2023-03-26T13:14:09.546Z,15.00
2023-03-26T13:16:42.700Z,14.90
2023-03-26T13:19:15.632Z,14.90
2023-03-26T13:21:57.854Z,14.90
2023-03-26T13:24:30.931Z,14.90
2023-03-26T13:27:09.902Z,14.80
2023-03-26T13:29:56.483Z,14.80
2023-03-26T13:32:30.394Z,14.80
2023-03-26T13:35:08.931Z,14.80
2023-03-26T13:37:46.782Z,14.70
2023-03-26T13:40:16.641Z,14.70
2023-03-26T13:43:03.875Z,14.70
2023-03-26T13:45:39.489Z,14.60
2023-03-26T13:48:12.113Z,14.60
2023-03-26T13:50:41.470Z,14.60
2023-03-26T13:53:12.619Z,14.50
2023-03-26T13:55:39.604Z,14.50
2023-03-26T13:58:12.360Z,14.40
2023-03-26T14:00:58.692Z,14.40
2023-03-26T14:03:29.882Z,14.30
2023-03-26T14:05:58.981Z,14.30
2023-03-26T14:08:30.155Z,14.30
2023-03-26T14:11:08.033Z,14.30
2023-03-26T14:13:56.415Z,14.30
2023-03-26T14:16:55.668Z,14.30
2023-03-26T14:19:28.628Z,14.30
2023-03-26T14:21:58.233Z,14.30
2023-03-26T14:24:33.249Z,14.30
2023-03-26T14:27:18.087Z,14.30
2023-03-26T14:30:11.629Z,14.20
2023-03-26T14:32:39.271Z,14.20
2023-03-26T14:35:12.207Z,14.10
2023-03-26T14:37:42.529Z,14.00
2023-03-26T14:40:27.574Z,13.90
2023-03-26T14:43:12.925Z,13.80
2023-03-26T14:45:42.477Z,13.70
2023-03-26T14:48:27.860Z,13.70
2023-03-26T14:50:55.005Z,13.70
2023-03-26T14:53:28.882Z,13.70
2023-03-26T14:56:15.648Z,13.60
2023-03-26T14:58:45.540Z,13.70
2023-03-26T15:01:12.512Z,13.70
2023-03-26T15:03:58.460Z,13.70
2023-03-26T15:06:34.504Z,13.70
2023-03-26T15:09:24.121Z,13.70
2023-03-26T15:12:12.118Z,13.70
2023-03-26T15:14:58.635Z,13.70
2023-03-26T15:17:37.949Z,13.70
2023-03-26T15:20:26.576Z,13.70
2023-03-26T15:23:18.545Z,13.70
2023-03-26T15:25:45.478Z,13.70
2023-03-26T15:28:32.647Z,13.80
2023-03-26T15:31:19.923Z,13.80
2023-03-26T15:33:46.851Z,13.80
2023-03-26T15:36:26.523Z,13.80
2023-03-26T15:39:12.260Z,13.80
2023-03-26T15:41:52.024Z,13.80
2023-03-26T15:44:25.525Z,13.90
2023-03-26T15:47:18.496Z,13.90
2023-03-26T15:49:53.928Z,13.90
2023-03-26T15:52:26.948Z,13.90
2023-03-26T15:55:01.417Z,13.90
2023-03-26T15:57:39.422Z,13.90
2023-03-26T16:00:16.579Z,13.90
2023-03-26T16:03:09.969Z,13.90
2023-03-26T16:05:37.434Z,13.90
2023-03-26T16:08:14.966Z,13.90
2023-03-26T16:10:56.251Z,13.90
2023-03-26T16:13:23.532Z,13.90
2023-03-26T16:15:56.211Z,13.90
2023-03-26T16:18:26.458Z,13.90
2023-03-26T16:21:05.193Z,13.90
2023-03-26T16:23:47.574Z,13.90
2023-03-26T16:26:37.414Z,13.90
2023-03-26T16:29:14.917Z,13.90
2023-03-26T16:32:11.188Z,13.90
2023-03-26T16:34:50.764Z,13.80
2023-03-26T16:37:26.783Z,13.80
2023-03-26T16:39:54.734Z,13.80
2023-03-26T16:42:22.428Z,13.80
2023-03-26T16:44:55.317Z,13.80
2023-03-26T16:47:22.237Z,13.80
2023-03-26T16:50:08.802Z,13.80
2023-03-26T16:52:46.619Z,13.80
2023-03-26T16:55:20.086Z,13.80
2023-03-26T16:57:56.369Z,13.80
2023-03-26T17:00:43.764Z,13.70
2023-03-26T17:03:24.427Z,13.70
2023-03-26T17:05:54.354Z,13.70
2023-03-26T17:08:35.939Z,13.70
2023-03-26T17:11:04.194Z,13.70
2023-03-26T17:13:44.304Z,13.60
2023-03-26T17:16:14.242Z,13.50
2023-03-26T17:18:47.209Z,13.50
2023-03-26T17:21:17.590Z,13.50
2023-03-26T17:23:56.593Z,13.40
2023-03-26T17:26:35.224Z,13.40
2023-03-26T17:29:20.658Z,13.40
2023-03-26T17:31:59.962Z,13.40
2023-03-26T17:34:39.123Z,13.40
2023-03-26T17:37:26.602Z,13.40
2023-03-26T17:39:53.522Z,13.40
2023-03-26T17:42:20.443Z,13.40
2023-03-26T17:44:47.413Z,13.30
2023-03-26T17:47:41.291Z,13.30
2023-03-26T17:50:11.056Z,13.30
2023-03-26T17:52:41.901Z,13.30
2023-03-26T17:55:10.662Z,13.30
2023-03-26T17:57:42.790Z,13.40
2023-03-26T18:00:18.684Z,13.30
2023-03-26T18:02:57.614Z,13.40
2023-03-26T18:05:26.788Z,13.40
2023-03-26T18:07:53.727Z,13.40
2023-03-26T18:10:24.747Z,13.40
2023-03-26T18:12:52.035Z,13.40
2023-03-26T18:15:27.688Z,13.40
2023-03-26T18:18:18.262Z,13.40
2023-03-26T18:20:47.343Z,13.40
2023-03-26T18:23:26.694Z,13.30
2023-03-26T18:25:58.630Z,13.30
2023-03-26T18:28:29.935Z,13.30
2023-03-26T18:31:07.010Z,13.30
2023-03-26T18:33:42.131Z,13.30
2023-03-26T18:36:11.382Z,13.30
2023-03-26T18:38:40.014Z,13.30
2023-03-26T18:41:15.552Z,13.30
2023-03-26T18:43:44.691Z,13.30
2023-03-26T18:46:13.614Z,13.20
2023-03-26T18:48:41.090Z,13.20
2023-03-26T18:51:08.584Z,13.20
2023-03-26T18:53:41.001Z,13.10
2023-03-26T18:56:27.683Z,13.10
2023-03-26T18:58:57.744Z,13.10
2023-03-26T19:01:26.343Z,13.00
2023-03-26T19:03:54.067Z,13.00
2023-03-26T19:06:21.392Z,12.90
2023-03-26T19:08:48.610Z,12.90
2023-03-26T19:11:16.991Z,12.90
2023-03-26T19:13:44.349Z,12.80
2023-03-26T19:16:23.615Z,12.90
2023-03-26T19:18:51.133Z,12.90
2023-03-26T19:21:19.984Z,12.90
2023-03-26T19:23:47.417Z,12.90
2023-03-26T19:26:14.666Z,12.90
2023-03-26T19:28:53.506Z,12.90
2023-03-26T19:31:27.397Z,12.80
2023-03-26T19:33:56.164Z,12.80
2023-03-26T19:36:29.784Z,12.80
2023-03-26T19:38:59.735Z,12.70
2023-03-26T19:41:30.368Z,12.70
2023-03-26T19:44:01.526Z,12.60
2023-03-26T19:46:32.365Z,12.60
2023-03-26T19:49:00.145Z,12.60
2023-03-26T19:51:34.802Z,12.60
2023-03-26T19:54:06.705Z,12.60
2023-03-26T19:56:33.969Z,12.60
2023-03-26T19:59:00.989Z,12.60
2023-03-26T20:01:29.796Z,12.60
2023-03-26T20:04:06.611Z,12.60
2023-03-26T20:06:43.364Z,12.60
2023-03-26T20:09:11.893Z,12.60
2023-03-26T20:11:39.962Z,12.60
2023-03-26T20:14:14.479Z,12.60
2023-03-26T20:16:43.862Z,12.60
2023-03-26T20:19:14.343Z,12.50
2023-03-26T20:21:41.878Z,12.50
2023-03-26T20:24:13.484Z,12.50
2023-03-26T20:26:40.517Z,12.50
2023-03-26T20:29:07.444Z,12.40
2023-03-26T20:31:34.420Z,12.50
2023-03-26T20:34:02.653Z,12.40
2023-03-26T20:36:34.232Z,12.40
2023-03-26T20:39:08.410Z,12.40
2023-03-26T20:41:36.100Z,12.40
2023-03-26T20:44:05.078Z,12.40
2023-03-26T20:46:33.368Z,12.40
2023-03-26T20:49:00.396Z,12.30
2023-03-26T20:51:28.995Z,12.30
2023-03-26T20:53:56.465Z,12.30
2023-03-26T20:56:23.567Z,12.30
2023-03-26T20:59:03.730Z,12.30
2023-03-26T21:01:35.205Z,12.40
2023-03-26T21:04:04.436Z,12.40
2023-03-26T21:06:31.793Z,12.30
2023-03-26T21:08:59.021Z,12.40
2023-03-26T21:11:37.785Z,12.40
2023-03-26T21:14:10.213Z,12.40
2023-03-26T21:16:37.584Z,12.40
2023-03-26T21:19:04.665Z,12.40
2023-03-26T21:21:37.775Z,12.40
2023-03-26T21:24:24.067Z,12.50
2023-03-26T21:27:01.762Z,12.50
2023-03-26T21:29:29.084Z,12.50
2023-03-26T21:31:56.086Z,12.50
2023-03-26T21:34:23.098Z,12.50
2023-03-26T21:36:50.786Z,12.60
2023-03-26T21:39:18.377Z,12.60
2023-03-26T21:41:47.854Z,12.60
2023-03-26T21:44:16.514Z,12.70
2023-03-26T21:46:44.054Z,12.70
2023-03-26T21:49:12.049Z,12.70
2023-03-26T21:51:39.099Z,12.70
2023-03-26T21:54:11.840Z,12.70
2023-03-26T21:56:38.685Z,12.60
2023-03-26T21:59:24.346Z,12.60
2023-03-26T22:01:54.031Z,12.60
2023-03-26T22:04:39.634Z,12.60
2023-03-26T22:07:12.793Z,12.50
2023-03-26T22:09:39.870Z,12.50
2023-03-26T22:12:06.851Z,12.50
2023-03-26T22:14:34.814Z,12.50
2023-03-26T22:17:01.807Z,12.50
2023-03-26T22:19:30.403Z,12.50
2023-03-26T22:21:58.668Z,12.50
2023-03-26T22:24:26.500Z,12.40
2023-03-26T22:26:53.654Z,12.40
2023-03-26T22:29:20.621Z,12.40
2023-03-26T22:31:47.717Z,12.30
2023-03-26T22:34:14.579Z,12.30
2023-03-26T22:36:41.496Z,12.20
2023-03-26T22:39:08.362Z,12.20
2023-03-26T22:41:35.274Z,12.10
2023-03-26T22:44:16.958Z,12.00
2023-03-26T22:46:49.457Z,11.90
2023-03-26T22:49:16.940Z,11.80
2023-03-26T22:51:44.167Z,11.80
2023-03-26T22:54:11.077Z,11.80
2023-03-26T22:56:38.159Z,11.70
2023-03-26T22:59:05.168Z,11.70
2023-03-26T23:01:32.276Z,11.60
2023-03-26T23:03:59.182Z,11.60
2023-03-26T23:06:26.609Z,11.50
2023-03-26T23:08:54.600Z,11.50
2023-03-26T23:11:22.323Z,11.40
2023-03-26T23:13:49.605Z,11.40
2023-03-26T23:16:17.350Z,11.40
2023-03-26T23:18:44.834Z,11.40
2023-03-26T23:21:16.396Z,11.40
2023-03-26T23:23:43.296Z,11.40
2023-03-26T23:26:10.883Z,11.30
2023-03-26T23:28:38.465Z,11.30
2023-03-26T23:31:06.683Z,11.30
2023-03-26T23:33:35.591Z,11.20
2023-03-26T23:36:07.472Z,11.30
2023-03-26T23:38:44.282Z,11.30
2023-03-26T23:41:15.440Z,11.30
2023-03-26T23:43:53.878Z,11.30
2023-03-26T23:46:24.628Z,11.20
2023-03-26T23:48:52.234Z,11.30
2023-03-26T23:51:22.550Z,11.30
2023-03-26T23:53:49.677Z,11.20
2023-03-26T23:56:17.187Z,11.20
2023-03-26T23:58:44.179Z,11.20
